createdAt,value
2019-03-23T00:02:05.398Z,8.57
2019-03-23T00:04:32.825Z,9.13
2019-03-23T00:07:00.116Z,11.43
2019-03-23T00:09:27.553Z,7.47
2019-03-23T00:11:55.035Z,7.23
2019-03-23T00:14:22.584Z,7.20
2019-03-23T00:16:49.973Z,7.50
2019-03-23T00:19:17.638Z,8.43
2019-03-23T00:21:45.188Z,8.40
2019-03-23T00:24:12.672Z,7.83
2019-03-23T00:26:40.213Z,10.67
2019-03-23T00:29:07.620Z,7.07
2019-03-23T00:31:34.969Z,12.10
2019-03-23T00:34:02.446Z,8.53
2019-03-23T00:36:29.876Z,7.00
2019-03-23T00:38:57.161Z,9.57
2019-03-23T00:41:24.510Z,9.17
2019-03-23T00:43:51.847Z,7.87
2019-03-23T00:46:21.185Z,7.70
2019-03-23T00:48:48.602Z,8.07
2019-03-23T00:51:16.002Z,7.00
2019-03-23T00:53:43.429Z,7.80
2019-03-23T00:56:10.807Z,8.83
2019-03-23T00:58:38.346Z,9.70
2019-03-23T01:01:05.757Z,8.00
2019-03-23T01:03:33.080Z,11.10
2019-03-23T01:06:00.485Z,9.43
2019-03-23T01:08:27.790Z,9.67
2019-03-23T01:10:55.421Z,9.07
2019-03-23T01:13:22.906Z,9.43
2019-03-23T01:15:50.291Z,8.73
2019-03-23T01:18:17.584Z,11.00
2019-03-23T01:20:49.555Z,10.53
2019-03-23T01:23:14.231Z,14.43
2019-03-23T01:25:41.787Z,11.47
2019-03-23T01:28:09.359Z,11.27
2019-03-23T01:30:36.770Z,10.57
2019-03-23T01:33:04.406Z,10.20
2019-03-23T01:35:31.732Z,9.50
2019-03-23T01:37:59.023Z,12.07
2019-03-23T01:40:26.379Z,8.73
2019-03-23T01:42:53.685Z,7.50
2019-03-23T01:45:21.230Z,7.80
2019-03-23T01:47:48.669Z,7.37
2019-03-23T01:50:16.244Z,8.40
2019-03-23T01:52:43.624Z,7.83
2019-03-23T01:55:11.339Z,7.77
2019-03-23T01:57:38.946Z,9.40
2019-03-23T02:00:07.124Z,10.50
2019-03-23T02:02:34.983Z,11.17
2019-03-23T02:05:02.815Z,9.83
2019-03-23T02:07:30.151Z,8.87
2019-03-23T02:09:57.495Z,8.50
2019-03-23T02:12:24.912Z,7.07
2019-03-23T02:14:52.159Z,7.80
2019-03-23T02:17:20.670Z,9.03
2019-03-23T02:19:48.228Z,8.20
2019-03-23T02:22:15.853Z,9.80
2019-03-23T02:24:43.240Z,8.83
2019-03-23T02:27:10.804Z,8.17
2019-03-23T02:29:38.159Z,8.73
2019-03-23T02:32:05.600Z,7.57
2019-03-23T02:34:33.141Z,8.83
2019-03-23T02:37:00.497Z,7.07
2019-03-23T02:39:28.160Z,8.97
2019-03-23T02:41:55.614Z,7.10
2019-03-23T02:44:23.071Z,9.20
2019-03-23T02:46:50.360Z,10.63
2019-03-23T02:49:17.917Z,8.80
2019-03-23T02:51:45.355Z,8.20
2019-03-23T02:54:12.984Z,9.50
2019-03-23T02:56:40.241Z,12.40
2019-03-23T02:59:07.880Z,11.53
2019-03-23T03:01:35.356Z,8.27
2019-03-23T03:04:02.900Z,7.87
2019-03-23T03:06:30.384Z,9.50
2019-03-23T03:08:57.962Z,8.20
2019-03-23T03:11:25.252Z,10.37
2019-03-23T03:13:52.564Z,7.57
2019-03-23T03:16:20.106Z,7.50
2019-03-23T03:18:47.516Z,10.10
2019-03-23T03:21:14.867Z,12.97
2019-03-23T03:23:42.200Z,8.00
2019-03-23T03:26:09.678Z,10.53
2019-03-23T03:28:37.010Z,7.00
2019-03-23T03:31:04.549Z,8.67
2019-03-23T03:33:31.976Z,11.30
2019-03-23T03:35:59.256Z,11.57
2019-03-23T03:38:26.546Z,9.03
2019-03-23T03:40:54.275Z,9.73
2019-03-23T03:43:21.663Z,9.63
2019-03-23T03:45:49.214Z,10.97
2019-03-23T03:48:16.571Z,10.87
2019-03-23T03:50:43.936Z,8.67
2019-03-23T03:53:11.212Z,8.43
2019-03-23T03:55:38.699Z,9.53
2019-03-23T03:58:07.312Z,9.27
2019-03-23T04:00:34.627Z,9.40
2019-03-23T04:03:02.168Z,12.60
2019-03-23T04:05:29.455Z,11.30
2019-03-23T04:08:09.892Z,11.03
2019-03-23T04:10:26.050Z,9.33
2019-03-23T04:12:53.357Z,12.47
2019-03-23T04:15:20.835Z,9.53
2019-03-23T04:17:48.343Z,8.93
2019-03-23T04:20:15.721Z,10.33
2019-03-23T04:22:43.092Z,8.67
2019-03-23T04:25:10.700Z,10.80
2019-03-23T04:27:37.969Z,11.00
2019-03-23T04:30:06.378Z,11.37
2019-03-23T04:32:34.209Z,12.77
2019-03-23T04:35:03.524Z,9.67
2019-03-23T04:37:30.795Z,9.70
2019-03-23T04:39:58.051Z,13.17
2019-03-23T04:42:25.507Z,9.03
2019-03-23T04:44:52.923Z,10.67
2019-03-23T04:47:20.378Z,12.03
2019-03-23T04:49:47.975Z,9.77
2019-03-23T04:52:15.375Z,12.83
2019-03-23T04:54:42.727Z,10.80
2019-03-23T04:57:10.219Z,9.77
2019-03-23T04:59:37.595Z,8.33
2019-03-23T05:02:05.192Z,11.80
2019-03-23T05:04:32.505Z,8.27
2019-03-23T05:06:59.813Z,9.23
2019-03-23T05:09:27.341Z,11.97
2019-03-23T05:11:54.858Z,10.43
2019-03-23T05:14:22.130Z,9.20
2019-03-23T05:16:49.399Z,8.87
2019-03-23T05:19:16.687Z,10.03
2019-03-23T05:21:43.942Z,7.97
2019-03-23T05:24:11.451Z,9.30
2019-03-23T05:26:38.886Z,8.33
2019-03-23T05:29:06.234Z,11.67
2019-03-23T05:31:34.869Z,13.63
2019-03-23T05:34:02.115Z,9.43
2019-03-23T05:36:29.527Z,12.23
2019-03-23T05:38:56.855Z,13.30
2019-03-23T05:41:24.378Z,11.63
2019-03-23T05:43:51.642Z,13.73
2019-03-23T05:46:19.176Z,11.27
2019-03-23T05:48:46.717Z,15.63
2019-03-23T05:51:14.222Z,14.83
2019-03-23T05:53:41.547Z,14.60
2019-03-23T05:56:08.842Z,14.97
2019-03-23T05:58:36.108Z,13.73
2019-03-23T06:01:03.624Z,15.47
2019-03-23T06:03:31.047Z,12.23
2019-03-23T06:05:58.480Z,14.07
2019-03-23T06:08:25.962Z,13.13
2019-03-23T06:10:53.486Z,10.90
2019-03-23T06:13:20.883Z,13.13
2019-03-23T06:15:48.382Z,10.07
2019-03-23T06:18:16.288Z,11.30
2019-03-23T06:20:43.685Z,10.17
2019-03-23T06:23:11.075Z,9.53
2019-03-23T06:25:38.583Z,11.47
2019-03-23T06:28:06.114Z,10.17
2019-03-23T06:30:33.375Z,9.43
2019-03-23T06:33:00.915Z,10.73
2019-03-23T06:35:28.321Z,11.40
2019-03-23T06:37:55.579Z,11.20
2019-03-23T06:40:22.979Z,11.77
2019-03-23T06:42:59.304Z,11.13
2019-03-23T06:45:20.979Z,11.30
2019-03-23T06:47:48.319Z,20.17
2019-03-23T06:50:15.842Z,10.53
2019-03-23T06:52:43.347Z,12.70
2019-03-23T06:55:11.871Z,12.60
2019-03-23T06:57:39.335Z,10.10
2019-03-23T07:00:07.973Z,11.40
2019-03-23T07:02:35.495Z,10.13
2019-03-23T07:05:03.179Z,13.87
2019-03-23T07:07:30.601Z,8.37
2019-03-23T07:09:58.028Z,9.23
2019-03-23T07:12:25.327Z,10.73
2019-03-23T07:14:52.762Z,10.03
2019-03-23T07:17:20.043Z,8.67
2019-03-23T07:19:47.311Z,7.43
2019-03-23T07:22:14.576Z,11.43
2019-03-23T07:24:42.409Z,14.80
2019-03-23T07:27:10.062Z,11.93
2019-03-23T07:29:37.460Z,12.67
2019-03-23T07:32:05.900Z,9.03
2019-03-23T07:34:33.678Z,9.50
2019-03-23T07:37:01.243Z,11.63
2019-03-23T07:39:30.490Z,12.33
2019-03-23T07:41:57.945Z,10.30
2019-03-23T07:44:25.491Z,13.10
2019-03-23T07:46:52.890Z,10.23
2019-03-23T07:49:20.356Z,10.10
2019-03-23T07:51:47.767Z,12.63
2019-03-23T07:54:15.164Z,15.43
2019-03-23T07:56:42.464Z,12.45
2019-03-23T07:59:09.965Z,10.20
2019-03-23T08:01:37.232Z,10.15
2019-03-23T08:04:04.623Z,13.65
2019-03-23T08:06:32.084Z,17.17
2019-03-23T08:08:59.442Z,15.25
2019-03-23T08:11:26.747Z,10.65
2019-03-23T08:13:54.159Z,11.65
2019-03-23T08:16:22.024Z,12.45
2019-03-23T08:18:49.373Z,11.18
2019-03-23T08:21:16.728Z,12.18
2019-03-23T08:23:45.332Z,14.93
2019-03-23T08:26:12.627Z,11.45
2019-03-23T08:28:40.018Z,12.35
2019-03-23T08:31:07.307Z,12.07
2019-03-23T08:33:34.700Z,13.03
2019-03-23T08:36:02.129Z,15.57
2019-03-23T08:38:29.517Z,17.60
2019-03-23T08:40:57.155Z,14.07
2019-03-23T08:43:24.655Z,16.00
2019-03-23T08:45:51.983Z,15.43
2019-03-23T08:48:19.260Z,17.13
2019-03-23T08:50:46.566Z,20.43
2019-03-23T08:53:13.883Z,15.73
2019-03-23T08:55:41.194Z,21.37
2019-03-23T08:58:08.594Z,20.57
2019-03-23T09:00:35.900Z,19.23
2019-03-23T09:03:03.878Z,19.53
2019-03-23T09:05:31.466Z,16.73
2019-03-23T09:07:58.985Z,17.80
2019-03-23T09:10:26.299Z,19.60
2019-03-23T09:12:53.566Z,19.57
2019-03-23T09:15:20.955Z,21.50
2019-03-23T09:17:48.355Z,20.83
2019-03-23T09:20:15.916Z,18.87
2019-03-23T09:22:43.285Z,20.20
2019-03-23T09:25:10.691Z,23.30
2019-03-23T09:27:38.071Z,19.17
2019-03-23T09:30:06.784Z,22.90
2019-03-23T09:32:34.099Z,20.17
2019-03-23T09:35:01.376Z,20.20
2019-03-23T09:37:28.695Z,24.93
2019-03-23T09:39:55.955Z,24.13
2019-03-23T09:42:23.194Z,21.43
2019-03-23T09:44:50.574Z,24.67
2019-03-23T09:47:17.967Z,21.40
2019-03-23T09:49:45.355Z,23.83
2019-03-23T09:52:12.759Z,22.77
2019-03-23T09:54:40.115Z,20.23
2019-03-23T09:57:07.478Z,25.13
2019-03-23T09:59:34.760Z,22.67
2019-03-23T10:02:02.318Z,25.32
2019-03-23T10:04:29.587Z,24.35
2019-03-23T10:06:57.138Z,27.95
2019-03-23T10:09:24.390Z,23.62
2019-03-23T10:11:51.794Z,24.80
2019-03-23T10:14:19.251Z,25.10
2019-03-23T10:16:46.779Z,24.57
2019-03-23T10:19:14.760Z,27.15
2019-03-23T10:21:42.687Z,30.80
2019-03-23T10:24:11.661Z,22.10
2019-03-23T10:26:41.587Z,21.25
2019-03-23T10:29:11.147Z,26.12
2019-03-23T10:31:39.046Z,25.90
2019-03-23T10:34:08.280Z,23.50
2019-03-23T10:36:35.751Z,23.92
2019-03-23T10:39:12.208Z,29.63
2019-03-23T10:41:44.724Z,27.15
2019-03-23T10:44:13.860Z,25.43
2019-03-23T10:46:45.413Z,24.63
2019-03-23T10:49:13.455Z,24.77
2019-03-23T10:51:41.553Z,25.65
2019-03-23T10:54:09.407Z,26.93
2019-03-23T10:56:37.390Z,24.85
2019-03-23T10:59:05.315Z,21.17
2019-03-23T11:01:34.359Z,26.45
2019-03-23T11:04:06.265Z,25.97
2019-03-23T11:06:39.685Z,29.82
2019-03-23T11:09:07.947Z,32.17
2019-03-23T11:11:42.035Z,26.80
2019-03-23T11:14:09.845Z,27.95
2019-03-23T11:16:40.539Z,29.98
2019-03-23T11:19:13.523Z,25.15
2019-03-23T11:21:41.202Z,26.93
2019-03-23T11:24:09.413Z,32.30
2019-03-23T11:26:40.124Z,27.42
2019-03-23T11:29:08.546Z,29.95
2019-03-23T11:31:39.138Z,34.95
2019-03-23T11:34:07.040Z,36.20
2019-03-23T11:36:35.413Z,34.30
2019-03-23T11:39:05.725Z,32.75
2019-03-23T11:41:33.649Z,37.03
2019-03-23T11:44:01.924Z,37.63
2019-03-23T11:46:29.986Z,39.05
2019-03-23T11:48:57.478Z,45.78
2019-03-23T11:51:25.528Z,38.85
2019-03-23T11:53:53.248Z,40.33
2019-03-23T11:56:20.979Z,43.60
2019-03-23T11:58:50.411Z,39.42
2019-03-23T12:01:18.422Z,40.78
2019-03-23T12:03:46.446Z,34.00
2019-03-23T12:06:14.256Z,38.58
2019-03-23T12:08:42.164Z,37.60
2019-03-23T12:11:19.300Z,42.23
2019-03-23T12:13:46.529Z,40.12
2019-03-23T12:16:14.056Z,44.55
2019-03-23T12:18:41.651Z,42.60
2019-03-23T12:21:09.375Z,39.80
2019-03-23T12:23:37.389Z,45.33
2019-03-23T12:26:05.399Z,45.38
2019-03-23T12:28:33.537Z,50.70
2019-03-23T12:31:01.367Z,48.02
2019-03-23T12:33:29.458Z,46.13
2019-03-23T12:35:59.104Z,48.52
2019-03-23T12:38:27.077Z,47.33
2019-03-23T12:40:56.739Z,51.50
2019-03-23T12:43:24.903Z,50.25
2019-03-23T12:45:52.510Z,52.30
2019-03-23T12:48:20.461Z,53.33
2019-03-23T12:50:48.327Z,46.92
2019-03-23T12:53:16.310Z,51.18
2019-03-23T12:55:45.984Z,50.83
2019-03-23T12:58:18.231Z,48.55
2019-03-23T13:00:51.480Z,52.03
2019-03-23T13:03:18.991Z,51.18
2019-03-23T13:05:47.117Z,54.67
2019-03-23T13:08:19.782Z,53.28
2019-03-23T13:10:48.871Z,51.15
2019-03-23T13:13:16.904Z,60.12
2019-03-23T13:15:45.067Z,55.28
2019-03-23T13:18:13.080Z,56.42
2019-03-23T13:20:40.483Z,56.80
2019-03-23T13:23:10.323Z,62.55
2019-03-23T13:25:38.179Z,59.33
2019-03-23T13:28:06.095Z,65.28
2019-03-23T13:30:34.239Z,61.80
2019-03-23T13:33:02.089Z,65.12
2019-03-23T13:35:30.211Z,60.58
2019-03-23T13:37:59.902Z,66.97
2019-03-23T13:40:30.534Z,63.92
2019-03-23T13:42:58.179Z,61.65
2019-03-23T13:45:26.040Z,63.45
2019-03-23T13:47:54.930Z,70.62
2019-03-23T13:50:26.795Z,73.55
2019-03-23T13:52:58.017Z,71.45
2019-03-23T13:55:28.284Z,76.20
2019-03-23T13:58:04.524Z,71.33
2019-03-23T14:00:32.518Z,74.17
2019-03-23T14:02:59.891Z,75.23
2019-03-23T14:05:27.277Z,82.03
2019-03-23T14:07:54.711Z,71.03
2019-03-23T14:10:22.145Z,81.53
2019-03-23T14:12:49.705Z,77.47
2019-03-23T14:15:16.971Z,74.53
2019-03-23T14:17:44.267Z,71.37
2019-03-23T14:20:11.710Z,78.47
2019-03-23T14:22:39.112Z,81.40
2019-03-23T14:25:06.480Z,78.70
2019-03-23T14:27:34.011Z,80.10
2019-03-23T14:30:01.623Z,87.07
2019-03-23T14:32:28.920Z,86.60
2019-03-23T14:34:56.371Z,76.50
2019-03-23T14:37:23.979Z,81.80
2019-03-23T14:39:51.314Z,87.60
2019-03-23T14:42:18.759Z,86.97
2019-03-23T14:44:46.038Z,86.73
2019-03-23T14:47:13.358Z,85.33
2019-03-23T14:49:40.771Z,87.27
2019-03-23T14:52:08.027Z,90.03
2019-03-23T14:54:35.318Z,91.23
2019-03-23T14:57:02.638Z,90.57
2019-03-23T14:59:30.228Z,97.23
2019-03-23T15:01:57.615Z,97.60
2019-03-23T15:04:25.144Z,94.10
2019-03-23T15:06:52.551Z,95.47
2019-03-23T15:09:19.965Z,101.03
2019-03-23T15:11:47.509Z,102.27
2019-03-23T15:14:14.943Z,106.13
2019-03-23T15:16:42.399Z,115.20
2019-03-23T15:19:09.702Z,101.20
2019-03-23T15:21:37.077Z,108.87
2019-03-23T15:24:04.611Z,103.30
2019-03-23T15:26:32.037Z,92.50
2019-03-23T15:28:59.403Z,98.33
2019-03-23T15:31:27.015Z,109.13
2019-03-23T15:33:54.391Z,104.90
2019-03-23T15:36:22.159Z,103.57
2019-03-23T15:38:49.383Z,114.27
2019-03-23T15:41:16.648Z,109.07
2019-03-23T15:43:44.033Z,108.17
2019-03-23T15:46:11.503Z,107.87
2019-03-23T15:48:38.924Z,105.83
2019-03-23T15:51:06.223Z,106.77
2019-03-23T15:53:33.760Z,116.80
2019-03-23T15:56:01.181Z,108.77
2019-03-23T15:58:28.570Z,107.37
2019-03-23T16:00:56.076Z,105.47
2019-03-23T16:03:23.374Z,108.60
2019-03-23T16:05:50.799Z,107.60
2019-03-23T16:08:18.182Z,99.70
2019-03-23T16:10:45.575Z,108.73
2019-03-23T16:13:13.143Z,98.90
2019-03-23T16:15:40.683Z,106.63
2019-03-23T16:18:07.928Z,97.40
2019-03-23T16:20:35.356Z,105.43
2019-03-23T16:23:03.000Z,100.47
2019-03-23T16:25:30.310Z,95.33
2019-03-23T16:27:57.724Z,110.97
2019-03-23T16:30:29.771Z,94.37
2019-03-23T16:32:57.215Z,113.87
2019-03-23T16:35:24.513Z,103.00
2019-03-23T16:37:51.922Z,109.73
2019-03-23T16:40:19.443Z,108.23
2019-03-23T16:42:50.100Z,107.97
2019-03-23T16:45:17.676Z,105.37
2019-03-23T16:47:45.304Z,113.87
2019-03-23T16:50:13.007Z,112.27
2019-03-23T16:52:40.462Z,104.10
2019-03-23T16:55:08.783Z,103.67
2019-03-23T16:57:36.191Z,111.53
2019-03-23T17:00:05.905Z,111.50
2019-03-23T17:02:33.189Z,117.77
2019-03-23T17:05:00.716Z,107.20
2019-03-23T17:07:28.260Z,109.53
2019-03-23T17:09:55.698Z,113.57
2019-03-23T17:12:22.977Z,109.63
2019-03-23T17:14:50.540Z,120.33
2019-03-23T17:17:17.978Z,111.83
2019-03-23T17:19:45.510Z,102.97
2019-03-23T17:22:12.915Z,118.77
2019-03-23T17:24:40.263Z,115.87
2019-03-23T17:27:07.656Z,109.53
2019-03-23T17:29:35.169Z,111.00
2019-03-23T17:32:02.667Z,107.67
2019-03-23T17:34:30.104Z,112.23
2019-03-23T17:36:57.510Z,110.50
2019-03-23T17:39:26.873Z,111.47
2019-03-23T17:41:54.146Z,108.13
2019-03-23T17:44:21.709Z,105.83
2019-03-23T17:46:49.260Z,107.17
2019-03-23T17:49:16.657Z,104.50
2019-03-23T17:51:44.119Z,110.43
2019-03-23T17:54:11.392Z,114.87
2019-03-23T17:56:38.814Z,115.35
2019-03-23T17:59:06.328Z,113.93
2019-03-23T18:01:33.874Z,115.60
2019-03-23T18:04:01.436Z,107.73
2019-03-23T18:06:28.760Z,115.00
2019-03-23T18:08:56.299Z,110.43
2019-03-23T18:11:23.572Z,118.17
2019-03-23T18:13:51.167Z,118.17
2019-03-23T18:16:18.807Z,115.57
2019-03-23T18:18:46.395Z,117.27
2019-03-23T18:21:13.945Z,113.50
2019-03-23T18:23:41.472Z,118.80
2019-03-23T18:26:09.126Z,114.77
2019-03-23T18:28:36.687Z,115.27
2019-03-23T18:31:04.247Z,122.37
2019-03-23T18:33:31.655Z,117.37
2019-03-23T18:35:59.182Z,113.07
2019-03-23T18:38:26.703Z,122.10
2019-03-23T18:40:54.216Z,117.23
2019-03-23T18:43:27.437Z,119.30
2019-03-23T18:45:51.248Z,114.73
2019-03-23T18:48:18.828Z,109.37
2019-03-23T18:50:46.443Z,104.67
2019-03-23T18:53:14.029Z,102.97
2019-03-23T18:55:41.560Z,96.67
2019-03-23T18:58:08.974Z,94.17
2019-03-23T19:00:41.753Z,92.17
2019-03-23T19:03:09.526Z,88.70
2019-03-23T19:05:37.281Z,83.33
2019-03-23T19:08:05.210Z,90.17
2019-03-23T19:10:32.826Z,87.67
2019-03-23T19:13:00.348Z,82.30
2019-03-23T19:15:27.918Z,75.40
2019-03-23T19:17:55.351Z,70.87
2019-03-23T19:20:22.913Z,66.50
2019-03-23T19:22:50.486Z,63.30
2019-03-23T19:25:18.610Z,62.73
2019-03-23T19:27:46.338Z,62.70
2019-03-23T19:30:14.624Z,58.30
2019-03-23T19:32:42.120Z,57.30
2019-03-23T19:35:09.652Z,50.80
2019-03-23T19:37:38.890Z,56.07
2019-03-23T19:40:06.659Z,54.70
2019-03-23T19:42:33.982Z,51.70
2019-03-23T19:45:01.483Z,47.07
2019-03-23T19:47:29.567Z,47.83
2019-03-23T19:49:56.965Z,53.17
2019-03-23T19:52:24.527Z,47.83
2019-03-23T19:54:52.109Z,42.23
2019-03-23T19:57:19.731Z,43.73
2019-03-23T19:59:47.164Z,41.27
2019-03-23T20:02:17.601Z,43.27
2019-03-23T20:04:45.042Z,42.07
2019-03-23T20:07:12.600Z,48.13
2019-03-23T20:09:39.975Z,39.27
2019-03-23T20:12:07.279Z,42.83
2019-03-23T20:14:34.689Z,34.33
2019-03-23T20:17:02.230Z,35.47
2019-03-23T20:19:29.621Z,39.37
2019-03-23T20:21:57.048Z,38.33
2019-03-23T20:24:24.479Z,41.67
2019-03-23T20:26:51.920Z,40.47
2019-03-23T20:29:19.222Z,37.83
2019-03-23T20:31:46.697Z,36.77
2019-03-23T20:34:14.257Z,45.07
2019-03-23T20:36:41.620Z,40.73
2019-03-23T20:39:09.293Z,38.77
2019-03-23T20:41:36.738Z,40.30
2019-03-23T20:44:09.420Z,41.13
2019-03-23T20:46:33.940Z,38.67
2019-03-23T20:49:01.676Z,35.90
2019-03-23T20:51:29.591Z,41.93
2019-03-23T20:53:57.151Z,37.73
2019-03-23T20:56:24.558Z,40.63
2019-03-23T20:58:51.958Z,34.23
2019-03-23T21:01:19.449Z,42.20
2019-03-23T21:03:46.846Z,38.13
2019-03-23T21:06:14.359Z,43.00
2019-03-23T21:08:41.770Z,41.30
2019-03-23T21:11:09.184Z,41.27
2019-03-23T21:13:36.494Z,41.27
2019-03-23T21:16:04.649Z,42.57
2019-03-23T21:18:32.038Z,43.07
2019-03-23T21:20:59.539Z,48.20
2019-03-23T21:23:26.887Z,42.83
2019-03-23T21:25:54.375Z,39.90
2019-03-23T21:28:21.797Z,42.60
2019-03-23T21:30:49.230Z,40.80
2019-03-23T21:33:16.569Z,41.87
2019-03-23T21:35:43.988Z,44.37
2019-03-23T21:38:11.531Z,46.93
2019-03-23T21:40:39.063Z,50.73
2019-03-23T21:43:06.546Z,50.63
2019-03-23T21:45:34.070Z,45.17
2019-03-23T21:48:01.567Z,46.80
2019-03-23T21:50:29.091Z,46.50
2019-03-23T21:52:56.527Z,46.53
2019-03-23T21:55:24.305Z,46.90
2019-03-23T21:57:55.295Z,46.13
2019-03-23T22:00:32.469Z,44.93
2019-03-23T22:03:00.124Z,41.77
2019-03-23T22:05:27.737Z,43.23
2019-03-23T22:07:56.424Z,45.53
2019-03-23T22:10:23.835Z,47.00
2019-03-23T22:12:51.379Z,44.03
2019-03-23T22:15:18.981Z,48.47
2019-03-23T22:17:46.383Z,47.10
2019-03-23T22:20:14.019Z,45.57
2019-03-23T22:22:41.703Z,46.37
2019-03-23T22:25:09.846Z,47.53
2019-03-23T22:27:37.555Z,48.63
2019-03-23T22:30:07.635Z,46.77
2019-03-23T22:32:35.085Z,46.73
2019-03-23T22:35:02.599Z,47.13
2019-03-23T22:37:34.411Z,50.03
2019-03-23T22:40:02.161Z,51.13
2019-03-23T22:42:29.515Z,48.20
2019-03-23T22:44:57.191Z,50.73
2019-03-23T22:47:32.266Z,54.37
2019-03-23T22:49:59.741Z,51.77
2019-03-23T22:52:27.152Z,49.37
2019-03-23T22:54:54.651Z,57.23
2019-03-23T22:57:22.203Z,54.43
2019-03-23T22:59:49.522Z,55.57
2019-03-23T23:02:16.797Z,53.57
2019-03-23T23:04:44.307Z,60.10
2019-03-23T23:07:12.124Z,57.97
2019-03-23T23:09:39.515Z,52.47
2019-03-23T23:12:07.313Z,64.53
2019-03-23T23:14:34.729Z,58.47
2019-03-23T23:17:02.232Z,58.03
2019-03-23T23:19:29.651Z,58.10
2019-03-23T23:21:57.154Z,60.33
2019-03-23T23:24:24.568Z,59.93
2019-03-23T23:26:52.007Z,68.43
2019-03-23T23:29:19.285Z,58.93
2019-03-23T23:31:46.698Z,61.37
2019-03-23T23:34:14.282Z,56.53
2019-03-23T23:36:41.565Z,62.93
2019-03-23T23:39:09.095Z,63.30
2019-03-23T23:41:36.490Z,63.47
2019-03-23T23:44:04.008Z,63.43
2019-03-23T23:46:36.786Z,64.53
2019-03-23T23:49:04.389Z,64.77
2019-03-23T23:51:31.926Z,61.83
2019-03-23T23:53:59.339Z,68.63
2019-03-23T23:56:33.373Z,64.57
2019-03-23T23:59:00.943Z,60.80
